sensor_id;sensor_type;location;lat;lon;timestamp;pressure;altitude;pressure_sealevel;temperature;humidity
71465;BME280;59274;49.874;9.154;2024-01-30T00:01:13;101715.78;;;1.64;100.00
71465;BME280;59274;49.874;9.154;2024-01-30T00:03:38;101720.69;;;1.52;100.00
71465;BME280;59274;49.874;9.154;2024-01-30T00:06:03;101722.53;;;1.56;100.00
71465;BME280;59274;49.874;9.154;2024-01-30T00:08:29;101711.56;;;1.53;100.00
71465;BME280;59274;49.874;9.154;2024-01-30T00:10:54;101706.47;;;1.56;100.00
71465;BME280;59274;49.874;9.154;2024-01-30T00:13:20;101703.56;;;1.48;100.00
71465;BME280;59274;49.874;9.154;2024-01-30T00:15:45;101707.84;;;1.49;100.00
71465;BME280;59274;49.874;9.154;2024-01-30T00:18:11;101722.28;;;1.53;100.00
71465;BME280;59274;49.874;9.154;2024-01-30T00:20:36;101718.00;;;1.52;100.00
71465;BME280;59274;49.874;9.154;2024-01-30T00:23:02;101723.63;;;1.50;100.00
71465;BME280;59274;49.874;9.154;2024-01-30T00:25:28;101720.97;;;1.45;100.00
71465;BME280;59274;49.874;9.154;2024-01-30T00:27:53;101716.16;;;1.47;100.00
71465;BME280;59274;49.874;9.154;2024-01-30T00:30:20;101719.06;;;1.51;100.00
71465;BME280;59274;49.874;9.154;2024-01-30T00:32:45;101724.16;;;1.52;100.00
71465;BME280;59274;49.874;9.154;2024-01-30T00:35:11;101724.44;;;1.51;100.00
71465;BME280;59274;49.874;9.154;2024-01-30T00:37:36;101717.16;;;1.56;100.00
71465;BME280;59274;49.874;9.154;2024-01-30T00:40:03;101720.66;;;1.57;100.00
71465;BME280;59274;49.874;9.154;2024-01-30T00:42:29;101719.00;;;1.66;100.00
71465;BME280;59274;49.874;9.154;2024-01-30T00:44:54;101723.03;;;1.64;100.00
71465;BME280;59274;49.874;9.154;2024-01-30T00:47:20;101724.88;;;1.68;100.00
71465;BME280;59274;49.874;9.154;2024-01-30T00:49:45;101729.19;;;1.64;100.00
71465;BME280;59274;49.874;9.154;2024-01-30T00:52:11;101728.44;;;1.53;100.00
71465;BME280;59274;49.874;9.154;2024-01-30T00:54:37;101727.59;;;1.63;100.00
71465;BME280;59274;49.874;9.154;2024-01-30T00:57:02;101725.19;;;1.56;100.00
71465;BME280;59274;49.874;9.154;2024-01-30T00:59:28;101722.81;;;1.55;100.00
71465;BME280;59274;49.874;9.154;2024-01-30T01:01:53;101724.69;;;1.54;100.00
71465;BME280;59274;49.874;9.154;2024-01-30T01:04:18;101734.31;;;1.50;100.00
71465;BME280;59274;49.874;9.154;2024-01-30T01:06:46;101732.41;;;1.61;100.00
71465;BME280;59274;49.874;9.154;2024-01-30T01:09:12;101733.53;;;1.55;100.00
71465;BME280;59274;49.874;9.154;2024-01-30T01:11:38;101724.16;;;1.52;100.00
71465;BME280;59274;49.874;9.154;2024-01-30T01:14:04;101724.44;;;1.51;100.00
71465;BME280;59274;49.874;9.154;2024-01-30T01:16:30;101718.03;;;1.47;100.00
71465;BME280;59274;49.874;9.154;2024-01-30T01:18:56;101719.63;;;1.43;100.00
71465;BME280;59274;49.874;9.154;2024-01-30T01:21:21;101720.97;;;1.45;100.00
71465;BME280;59274;49.874;9.154;2024-01-30T01:23:47;101737.34;;;1.39;100.00
71465;BME280;59274;49.874;9.154;2024-01-30T01:26:13;101732.81;;;1.34;100.00
71465;BME280;59274;49.874;9.154;2024-01-30T01:28:41;101725.84;;;1.33;100.00
71465;BME280;59274;49.874;9.154;2024-01-30T01:31:07;101723.94;;;1.39;100.00
71465;BME280;59274;49.874;9.154;2024-01-30T01:33:33;101722.91;;;1.35;100.00
71465;BME280;59274;49.874;9.154;2024-01-30T01:35:59;101722.91;;;1.35;100.00
71465;BME280;59274;49.874;9.154;2024-01-30T01:38:28;101714.06;;;1.29;100.00
71465;BME280;59274;49.874;9.154;2024-01-30T01:40:53;101714.63;;;1.31;100.00
71465;BME280;59274;49.874;9.154;2024-01-30T01:43:19;101718.63;;;1.34;100.00
71465;BME280;59274;49.874;9.154;2024-01-30T01:45:45;101715.94;;;1.34;100.00
71465;BME280;59274;49.874;9.154;2024-01-30T01:48:11;101713.56;;;1.27;100.00
71465;BME280;59274;49.874;9.154;2024-01-30T01:50:38;101716.16;;;1.42;100.00
71465;BME280;59274;49.874;9.154;2024-01-30T01:53:07;101719.66;;;1.38;100.00
71465;BME280;59274;49.874;9.154;2024-01-30T01:55:33;101713.78;;;1.36;100.00
71465;BME280;59274;49.874;9.154;2024-01-30T01:58:00;101717.56;;;1.35;100.00
71465;BME280;59274;49.874;9.154;2024-01-30T02:00:26;101708.22;;;1.27;100.00
71465;BME280;59274;49.874;9.154;2024-01-30T02:02:53;101705.81;;;1.26;100.00
71465;BME280;59274;49.874;9.154;2024-01-30T02:05:20;101713.28;;;1.29;100.00
71465;BME280;59274;49.874;9.154;2024-01-30T02:07:46;101711.13;;;1.31;100.00
71465;BME280;59274;49.874;9.154;2024-01-30T02:10:12;101710.06;;;1.32;100.00
71465;BME280;59274;49.874;9.154;2024-01-30T02:12:38;101712.97;;;1.40;100.00
71465;BME280;59274;49.874;9.154;2024-01-30T02:15:04;101702.78;;;1.47;100.00
71465;BME280;59274;49.874;9.154;2024-01-30T02:17:30;101710.56;;;1.39;100.00
71465;BME280;59274;49.874;9.154;2024-01-30T02:19:56;101708.44;;;1.41;100.00
71465;BME280;59274;49.874;9.154;2024-01-30T02:22:22;101704.72;;;1.32;100.00
71465;BME280;59274;49.874;9.154;2024-01-30T02:24:48;101708.47;;;1.31;100.00
71465;BME280;59274;49.874;9.154;2024-01-30T02:27:13;101711.13;;;1.31;100.00
71465;BME280;59274;49.874;9.154;2024-01-30T02:29:39;101710.34;;;1.25;100.00
71465;BME280;59274;49.874;9.154;2024-01-30T02:32:05;101706.63;;;1.16;100.00
71465;BME280;59274;49.874;9.154;2024-01-30T02:34:31;101703.16;;;1.15;100.00
71465;BME280;59274;49.874;9.154;2024-01-30T02:36:57;101704.53;;;1.13;100.00
71465;BME280;59274;49.874;9.154;2024-01-30T02:39:22;101700.53;;;1.05;100.00
71465;BME280;59274;49.874;9.154;2024-01-30T02:41:48;101702.94;;;1.02;100.00
71465;BME280;59274;49.874;9.154;2024-01-30T02:44:13;101697.84;;;1.00;100.00
71465;BME280;59274;49.874;9.154;2024-01-30T02:46:38;101693.84;;;1.03;100.00
71465;BME280;59274;49.874;9.154;2024-01-30T02:49:04;101693.28;;;1.11;100.00
71465;BME280;59274;49.874;9.154;2024-01-30T02:51:29;101697.28;;;1.08;100.00
71465;BME280;59274;49.874;9.154;2024-01-30T02:53:55;101698.38;;;1.12;100.00
71465;BME280;59274;49.874;9.154;2024-01-30T02:56:20;101703.97;;;1.11;100.00
71465;BME280;59274;49.874;9.154;2024-01-30T02:58:46;101699.72;;;1.00;100.00
71465;BME280;59274;49.874;9.154;2024-01-30T03:01:11;101708.56;;;1.05;100.00
71465;BME280;59274;49.874;9.154;2024-01-30T03:03:37;101701.59;;;1.04;100.00
71465;BME280;59274;49.874;9.154;2024-01-30T03:06:02;101693.31;;;1.06;100.00
71465;BME280;59274;49.874;9.154;2024-01-30T03:08:28;101693.56;;;1.04;100.00
71465;BME280;59274;49.874;9.154;2024-01-30T03:10:53;101701.06;;;1.02;100.00
71465;BME280;59274;49.874;9.154;2024-01-30T03:13:19;101697.34;;;0.98;100.00
71465;BME280;59274;49.874;9.154;2024-01-30T03:15:44;101691.94;;;1.08;100.00
71465;BME280;59274;49.874;9.154;2024-01-30T03:18:10;101691.69;;;1.10;100.00
71465;BME280;59274;49.874;9.154;2024-01-30T03:20:35;101702.09;;;1.11;100.00
71465;BME280;59274;49.874;9.154;2024-01-30T03:23:01;101697.28;;;1.13;100.00
71465;BME280;59274;49.874;9.154;2024-01-30T03:25:26;101698.34;;;1.07;100.00
71465;BME280;59274;49.874;9.154;2024-01-30T03:27:52;101691.69;;;1.10;100.00
71465;BME280;59274;49.874;9.154;2024-01-30T03:30:17;101694.03;;;1.22;100.00
71465;BME280;59274;49.874;9.154;2024-01-30T03:32:43;101703.66;;;1.23;100.00
71465;BME280;59274;49.874;9.154;2024-01-30T03:35:09;101699.13;;;1.18;100.00
71465;BME280;59274;49.874;9.154;2024-01-30T03:37:35;101697.56;;;1.12;100.00
71465;BME280;59274;49.874;9.154;2024-01-30T03:40:01;101701.03;;;1.12;100.00
71465;BME280;59274;49.874;9.154;2024-01-30T03:42:27;101697.56;;;1.12;100.00
71465;BME280;59274;49.874;9.154;2024-01-30T03:44:52;101698.16;;;0.99;100.00
71465;BME280;59274;49.874;9.154;2024-01-30T03:47:19;101706.38;;;1.07;100.00
71465;BME280;59274;49.874;9.154;2024-01-30T03:49:45;101700.81;;;0.99;100.00
71465;BME280;59274;49.874;9.154;2024-01-30T03:52:11;101706.16;;;0.99;100.00
71465;BME280;59274;49.874;9.154;2024-01-30T03:54:36;101705.34;;;1.03;100.00
71465;BME280;59274;49.874;9.154;2024-01-30T03:57:02;101711.50;;;1.04;100.00
71465;BME280;59274;49.874;9.154;2024-01-30T03:59:27;101702.66;;;1.03;100.00
71465;BME280;59274;49.874;9.154;2024-01-30T04:01:53;101696.78;;;1.01;100.00
71465;BME280;59274;49.874;9.154;2024-01-30T04:04:18;101701.06;;;1.02;100.00
71465;BME280;59274;49.874;9.154;2024-01-30T04:06:44;101687.44;;;0.99;100.00
71465;BME280;59274;49.874;9.154;2024-01-30T04:09:10;101696.00;;;0.86;100.00
71465;BME280;59274;49.874;9.154;2024-01-30T04:11:36;101698.13;;;0.94;100.00
71465;BME280;59274;49.874;9.154;2024-01-30T04:14:02;101690.97;;;0.84;100.00
71465;BME280;59274;49.874;9.154;2024-01-30T04:16:27;101697.63;;;0.87;100.00
71465;BME280;59274;49.874;9.154;2024-01-30T04:18:52;101694.97;;;0.82;100.00
71465;BME280;59274;49.874;9.154;2024-01-30T04:21:18;101692.81;;;0.89;100.00
71465;BME280;59274;49.874;9.154;2024-01-30T04:23:45;101696.28;;;0.89;100.00
71465;BME280;59274;49.874;9.154;2024-01-30T04:26:11;101691.50;;;0.81;100.00
71465;BME280;59274;49.874;9.154;2024-01-30T04:28:36;101696.84;;;0.76;100.00
71465;BME280;59274;49.874;9.154;2024-01-30T04:31:02;101692.59;;;0.70;100.00
71465;BME280;59274;49.874;9.154;2024-01-30T04:33:28;101683.47;;;0.76;100.00
71465;BME280;59274;49.874;9.154;2024-01-30T04:35:53;101686.91;;;0.87;100.00
71465;BME280;59274;49.874;9.154;2024-01-30T04:38:19;101692.84;;;0.73;100.00
71465;BME280;59274;49.874;9.154;2024-01-30T04:40:44;101689.38;;;0.68;100.00
71465;BME280;59274;49.874;9.154;2024-01-30T04:43:10;101691.22;;;0.72;100.00
71465;BME280;59274;49.874;9.154;2024-01-30T04:45:35;101699.25;;;0.72;100.00
71465;BME280;59274;49.874;9.154;2024-01-30T04:48:01;101705.66;;;0.71;100.00
71465;BME280;59274;49.874;9.154;2024-01-30T04:50:26;101701.66;;;0.74;100.00
71465;BME280;59274;49.874;9.154;2024-01-30T04:52:52;101698.75;;;0.70;100.00
71465;BME280;59274;49.874;9.154;2024-01-30T04:55:17;101700.31;;;0.71;100.00
71465;BME280;59274;49.874;9.154;2024-01-30T04:57:43;101705.13;;;0.74;100.00
71465;BME280;59274;49.874;9.154;2024-01-30T05:00:09;101698.75;;;0.60;100.00
71465;BME280;59274;49.874;9.154;2024-01-30T05:02:35;101700.88;;;0.63;100.00
71465;BME280;59274;49.874;9.154;2024-01-30T05:05:00;101697.91;;;0.65;100.00
71465;BME280;59274;49.874;9.154;2024-01-30T05:07:26;101702.75;;;0.68;100.00
71465;BME280;59274;49.874;9.154;2024-01-30T05:09:51;101707.03;;;0.69;100.00
71465;BME280;59274;49.874;9.154;2024-01-30T05:12:17;101706.47;;;0.72;100.00
71465;BME280;59274;49.874;9.154;2024-01-30T05:14:42;101707.28;;;0.72;100.00
71465;BME280;59274;49.874;9.154;2024-01-30T05:17:08;101708.88;;;0.68;100.00
71465;BME280;59274;49.874;9.154;2024-01-30T05:19:35;101711.28;;;0.75;100.00
71465;BME280;59274;49.874;9.154;2024-01-30T05:22:01;101718.78;;;0.78;100.00
71465;BME280;59274;49.874;9.154;2024-01-30T05:24:26;101713.69;;;0.71;100.00
71465;BME280;59274;49.874;9.154;2024-01-30T05:26:51;101711.00;;;0.71;100.00
71465;BME280;59274;49.874;9.154;2024-01-30T05:29:17;101710.75;;;0.73;100.00
71465;BME280;59274;49.874;9.154;2024-01-30T05:31:42;101709.16;;;0.67;100.00
71465;BME280;59274;49.874;9.154;2024-01-30T05:34:08;101714.25;;;0.68;100.00
71465;BME280;59274;49.874;9.154;2024-01-30T05:36:34;101710.50;;;0.69;100.00
71465;BME280;59274;49.874;9.154;2024-01-30T05:38:59;101717.16;;;0.72;100.00
71465;BME280;59274;49.874;9.154;2024-01-30T05:41:25;101711.00;;;0.71;100.00
71465;BME280;59274;49.874;9.154;2024-01-30T05:43:50;101718.53;;;0.69;100.00
71465;BME280;59274;49.874;9.154;2024-01-30T05:46:18;101719.88;;;0.57;100.00
71465;BME280;59274;49.874;9.154;2024-01-30T05:48:44;101718.25;;;0.66;100.00
71465;BME280;59274;49.874;9.154;2024-01-30T05:51:09;101716.91;;;0.68;100.00
71465;BME280;59274;49.874;9.154;2024-01-30T05:53:35;101720.66;;;0.62;100.00
71465;BME280;59274;49.874;9.154;2024-01-30T05:56:01;101715.03;;;0.59;100.00
71465;BME280;59274;49.874;9.154;2024-01-30T05:58:27;101717.47;;;0.55;100.00
71465;BME280;59274;49.874;9.154;2024-01-30T06:00:53;101718.81;;;0.48;100.00
71465;BME280;59274;49.874;9.154;2024-01-30T06:03:18;101711.59;;;0.48;100.00
71465;BME280;59274;49.874;9.154;2024-01-30T06:05:44;101729.47;;;0.58;100.00
71465;BME280;59274;49.874;9.154;2024-01-30T06:08:09;101729.47;;;0.58;100.00
71465;BME280;59274;49.874;9.154;2024-01-30T06:10:35;101728.97;;;0.56;100.00
71465;BME280;59274;49.874;9.154;2024-01-30T06:13:01;101735.38;;;0.55;100.00
71465;BME280;59274;49.874;9.154;2024-01-30T06:15:27;101730.81;;;0.65;100.00
71465;BME280;59274;49.874;9.154;2024-01-30T06:17:55;101731.34;;;0.62;100.00
71465;BME280;59274;49.874;9.154;2024-01-30T06:20:20;101726.00;;;0.52;100.00
71465;BME280;59274;49.874;9.154;2024-01-30T06:22:45;101723.59;;;0.46;100.00
71465;BME280;59274;49.874;9.154;2024-01-30T06:25:11;101724.16;;;0.43;100.00
71465;BME280;59274;49.874;9.154;2024-01-30T06:27:37;101730.03;;;0.55;100.00
71465;BME280;59274;49.874;9.154;2024-01-30T06:30:04;101729.22;;;0.44;100.00
71465;BME280;59274;49.874;9.154;2024-01-30T06:32:30;101726.53;;;0.44;100.00
71465;BME280;59274;49.874;9.154;2024-01-30T06:35:00;101730.81;;;0.45;100.00
71465;BME280;59274;49.874;9.154;2024-01-30T06:37:25;101729.22;;;0.44;100.00
71465;BME280;59274;49.874;9.154;2024-01-30T06:39:51;101731.88;;;0.44;100.00
71465;BME280;59274;49.874;9.154;2024-01-30T06:42:18;101733.75;;;0.44;100.00
71465;BME280;59274;49.874;9.154;2024-01-30T06:44:43;101734.28;;;0.46;100.00
71465;BME280;59274;49.874;9.154;2024-01-30T06:47:09;101730.28;;;0.43;100.00
71465;BME280;59274;49.874;9.154;2024-01-30T06:49:34;101740.72;;;0.39;100.00
71465;BME280;59274;49.874;9.154;2024-01-30T06:52:00;101736.16;;;0.45;100.00
71465;BME280;59274;49.874;9.154;2024-01-30T06:54:25;101736.72;;;0.42;100.00
71465;BME280;59274;49.874;9.154;2024-01-30T06:56:51;101723.88;;;0.44;100.00
71465;BME280;59274;49.874;9.154;2024-01-30T06:59:16;101721.47;;;0.43;100.00
71465;BME280;59274;49.874;9.154;2024-01-30T07:01:42;101735.91;;;0.47;100.00
71465;BME280;59274;49.874;9.154;2024-01-30T07:04:07;101731.06;;;0.44;100.00
71465;BME280;59274;49.874;9.154;2024-01-30T07:06:32;101732.69;;;0.50;100.00
71465;BME280;59274;49.874;9.154;2024-01-30T07:08:58;101730.81;;;0.45;100.00
71465;BME280;59274;49.874;9.154;2024-01-30T07:11:23;101742.56;;;0.44;100.00
71465;BME280;59274;49.874;9.154;2024-01-30T07:13:50;101734.28;;;0.46;100.00
71465;BME280;59274;49.874;9.154;2024-01-30T07:16:16;101736.44;;;0.54;100.00
71465;BME280;59274;49.874;9.154;2024-01-30T07:18:41;101729.22;;;0.44;100.00
71465;BME280;59274;49.874;9.154;2024-01-30T07:21:07;101729.22;;;0.44;100.00
71465;BME280;59274;49.874;9.154;2024-01-30T07:23:32;101732.16;;;0.48;100.00
71465;BME280;59274;49.874;9.154;2024-01-30T07:26:00;101738.31;;;0.48;100.00
71465;BME280;59274;49.874;9.154;2024-01-30T07:28:26;101736.97;;;0.46;100.00
71465;BME280;59274;49.874;9.154;2024-01-30T07:30:51;101737.50;;;0.53;100.00
71465;BME280;59274;49.874;9.154;2024-01-30T07:33:17;101733.47;;;0.50;100.00
71465;BME280;59274;49.874;9.154;2024-01-30T07:35:43;101734.28;;;0.61;100.00
71465;BME280;59274;49.874;9.154;2024-01-30T07:38:08;101735.63;;;0.63;100.00
71465;BME280;59274;49.874;9.154;2024-01-30T07:40:34;101735.38;;;0.70;100.00
71465;BME280;59274;49.874;9.154;2024-01-30T07:42:59;101732.94;;;0.68;100.00
71465;BME280;59274;49.874;9.154;2024-01-30T07:45:26;101738.03;;;0.70;100.00
71465;BME280;59274;49.874;9.154;2024-01-30T07:47:53;101740.69;;;0.80;100.00
71465;BME280;59274;49.874;9.154;2024-01-30T07:50:18;101743.88;;;0.87;100.00
71465;BME280;59274;49.874;9.154;2024-01-30T07:52:44;101740.41;;;0.87;100.00
71465;BME280;59274;49.874;9.154;2024-01-30T07:55:09;101740.09;;;1.03;100.00
71465;BME280;59274;49.874;9.154;2024-01-30T07:57:35;101742.75;;;1.08;100.00
71465;BME280;59274;49.874;9.154;2024-01-30T08:00:01;101746.53;;;1.02;100.00
71465;BME280;59274;49.874;9.154;2024-01-30T08:02:28;101739.28;;;1.08;100.00
71465;BME280;59274;49.874;9.154;2024-01-30T08:04:53;101744.66;;;1.03;100.00
71465;BME280;59274;49.874;9.154;2024-01-30T08:07:19;101741.16;;;1.07;100.00
71465;BME280;59274;49.874;9.154;2024-01-30T08:09:44;101745.97;;;1.21;100.00
71465;BME280;59274;49.874;9.154;2024-01-30T08:12:10;101743.00;;;1.22;100.00
71465;BME280;59274;49.874;9.154;2024-01-30T08:14:35;101748.31;;;1.32;100.00
71465;BME280;59274;49.874;9.154;2024-01-30T08:17:01;101744.03;;;1.31;100.00
71465;BME280;59274;49.874;9.154;2024-01-30T08:19:26;101740.03;;;1.29;100.00
71465;BME280;59274;49.874;9.154;2024-01-30T08:21:51;101737.34;;;1.34;100.00
71465;BME280;59274;49.874;9.154;2024-01-30T08:24:17;101744.03;;;1.41;100.00
71465;BME280;59274;49.874;9.154;2024-01-30T08:26:42;101740.28;;;1.37;100.00
71465;BME280;59274;49.874;9.154;2024-01-30T08:29:08;101743.50;;;1.39;100.00
71465;BME280;59274;49.874;9.154;2024-01-30T08:31:33;101746.09;;;1.49;100.00
71465;BME280;59274;49.874;9.154;2024-01-30T08:33:59;101747.91;;;1.64;100.00
71465;BME280;59274;49.874;9.154;2024-01-30T08:36:25;101756.44;;;1.76;100.00
71465;BME280;59274;49.874;9.154;2024-01-30T08:38:50;101757.53;;;1.75;100.00
71465;BME280;59274;49.874;9.154;2024-01-30T08:41:16;101758.06;;;1.77;100.00
71465;BME280;59274;49.874;9.154;2024-01-30T08:43:41;101766.28;;;1.86;100.00
71465;BME280;59274;49.874;9.154;2024-01-30T08:46:06;101760.94;;;1.91;100.00
71465;BME280;59274;49.874;9.154;2024-01-30T08:48:32;101771.06;;;1.94;100.00
71465;BME280;59274;49.874;9.154;2024-01-30T08:50:57;101766.47;;;2.00;100.00
71465;BME280;59274;49.874;9.154;2024-01-30T08:53:23;101775.00;;;2.07;100.00
71465;BME280;59274;49.874;9.154;2024-01-30T08:55:48;101772.81;;;2.19;100.00
71465;BME280;59274;49.874;9.154;2024-01-30T08:58:13;101774.38;;;2.25;100.00
71465;BME280;59274;49.874;9.154;2024-01-30T09:00:40;101774.97;;;2.17;100.00
71465;BME280;59274;49.874;9.154;2024-01-30T09:03:06;101780.53;;;2.25;100.00
71465;BME280;59274;49.874;9.154;2024-01-30T09:05:31;101772.19;;;2.32;100.00
71465;BME280;59274;49.874;9.154;2024-01-30T09:07:57;101782.28;;;2.45;100.00
71465;BME280;59274;49.874;9.154;2024-01-30T09:10:22;101777.19;;;2.44;100.00
71465;BME280;59274;49.874;9.154;2024-01-30T09:12:48;101775.25;;;2.54;100.00
71465;BME280;59274;49.874;9.154;2024-01-30T09:15:14;101777.41;;;2.52;100.00
71465;BME280;59274;49.874;9.154;2024-01-30T09:17:40;101783.84;;;2.51;100.00
71465;BME280;59274;49.874;9.154;2024-01-30T09:20:06;101784.00;;;2.65;100.00
71465;BME280;59274;49.874;9.154;2024-01-30T09:22:31;101787.63;;;2.79;100.00
71465;BME280;59274;49.874;9.154;2024-01-30T09:24:57;101791.59;;;2.87;100.00
71465;BME280;59274;49.874;9.154;2024-01-30T09:27:23;101787.78;;;2.93;100.00
71465;BME280;59274;49.874;9.154;2024-01-30T09:29:48;101792.81;;;2.99;100.00
71465;BME280;59274;49.874;9.154;2024-01-30T09:32:14;101796.50;;;3.08;100.00
71465;BME280;59274;49.874;9.154;2024-01-30T09:34:40;101788.16;;;3.10;100.00
71465;BME280;59274;49.874;9.154;2024-01-30T09:37:05;101788.06;;;3.20;100.00
71465;BME280;59274;49.874;9.154;2024-01-30T09:39:30;101794.66;;;3.33;100.00
71465;BME280;59274;49.874;9.154;2024-01-30T09:44:35;101787.38;;;3.57;100.00
71465;BME280;59274;49.874;9.154;2024-01-30T09:47:02;101783.31;;;3.60;100.00
71465;BME280;59274;49.874;9.154;2024-01-30T09:49:34;101786.47;;;3.67;100.00
71465;BME280;59274;49.874;9.154;2024-01-30T09:52:02;101790.50;;;3.64;100.00
71465;BME280;59274;49.874;9.154;2024-01-30T09:54:31;101789.09;;;3.72;100.00
71465;BME280;59274;49.874;9.154;2024-01-30T09:56:59;101791.69;;;3.77;100.00
71465;BME280;59274;49.874;9.154;2024-01-30T09:59:25;101789.19;;;3.85;100.00
71465;BME280;59274;49.874;9.154;2024-01-30T10:01:50;101787.22;;;3.91;100.00
71465;BME280;59274;49.874;9.154;2024-01-30T10:04:16;101786.88;;;4.16;100.00
71465;BME280;59274;49.874;9.154;2024-01-30T10:06:42;101781.22;;;4.18;100.00
71465;BME280;59274;49.874;9.154;2024-01-30T10:09:07;101779.81;;;4.20;100.00
71465;BME280;59274;49.874;9.154;2024-01-30T10:11:35;101781.84;;;4.28;100.00
71465;BME280;59274;49.874;9.154;2024-01-30T10:14:01;101776.63;;;4.37;100.00
71465;BME280;59274;49.874;9.154;2024-01-30T10:16:26;101775.88;;;4.50;100.00
71465;BME280;59274;49.874;9.154;2024-01-30T10:18:51;101773.72;;;4.52;100.00
71465;BME280;59274;49.874;9.154;2024-01-30T10:21:17;101779.22;;;4.61;100.00
71465;BME280;59274;49.874;9.154;2024-01-30T10:23:43;101773.53;;;4.62;100.00
71465;BME280;59274;49.874;9.154;2024-01-30T10:26:09;101770.00;;;4.81;100.00
71465;BME280;59274;49.874;9.154;2024-01-30T10:28:35;101773.13;;;4.88;100.00
71465;BME280;59274;49.874;9.154;2024-01-30T10:31:01;101771.94;;;4.94;100.00
71465;BME280;59274;49.874;9.154;2024-01-30T10:33:29;101776.53;;;5.07;100.00
71465;BME280;59274;49.874;9.154;2024-01-30T10:36:00;101770.69;;;5.19;100.00
71465;BME280;59274;49.874;9.154;2024-01-30T10:38:28;101773.69;;;5.31;100.00
71465;BME280;59274;49.874;9.154;2024-01-30T10:40:56;101769.28;;;5.35;100.00
71465;BME280;59274;49.874;9.154;2024-01-30T10:43:22;101761.59;;;5.42;100.00
71465;BME280;59274;49.874;9.154;2024-01-30T10:45:49;101764.22;;;5.47;100.00
71465;BME280;59274;49.874;9.154;2024-01-30T10:48:20;101760.59;;;5.51;100.00
71465;BME280;59274;49.874;9.154;2024-01-30T10:50:54;101759.91;;;5.46;100.00
71465;BME280;59274;49.874;9.154;2024-01-30T10:53:21;101755.78;;;5.62;100.00
71465;BME280;59274;49.874;9.154;2024-01-30T10:55:48;101749.53;;;5.67;100.00
71465;BME280;59274;49.874;9.154;2024-01-30T10:58:16;101746.03;;;5.66;100.00
71465;BME280;59274;49.874;9.154;2024-01-30T11:00:42;101749.63;;;5.75;100.00
71465;BME280;59274;49.874;9.154;2024-01-30T11:03:08;101750.97;;;5.86;100.00
71465;BME280;59274;49.874;9.154;2024-01-30T11:05:34;101753.00;;;5.95;100.00
71465;BME280;59274;49.874;9.154;2024-01-30T11:08:11;101754.06;;;6.07;100.00
71465;BME280;59274;49.874;9.154;2024-01-30T11:10:45;101749.84;;;6.15;100.00
71465;BME280;59274;49.874;9.154;2024-01-30T11:13:13;101755.38;;;6.32;100.00
71465;BME280;59274;49.874;9.154;2024-01-30T11:15:39;101754.53;;;6.45;100.00
71465;BME280;59274;49.874;9.154;2024-01-30T11:18:05;101755.69;;;6.53;100.00
71465;BME280;59274;49.874;9.154;2024-01-30T11:20:31;101756.72;;;6.65;100.00
71465;BME280;59274;49.874;9.154;2024-01-30T11:22:58;101751.09;;;6.84;100.00
71465;BME280;59274;49.874;9.154;2024-01-30T11:25:24;101747.41;;;7.11;100.00
71465;BME280;59274;49.874;9.154;2024-01-30T11:27:54;101760.63;;;7.13;100.00
71465;BME280;59274;49.874;9.154;2024-01-30T11:30:24;101747.00;;;7.26;100.00
71465;BME280;59274;49.874;9.154;2024-01-30T11:33:06;101743.72;;;7.38;100.00
71465;BME280;59274;49.874;9.154;2024-01-30T11:35:33;101741.66;;;7.43;100.00
71465;BME280;59274;49.874;9.154;2024-01-30T11:38:00;101732.47;;;7.44;100.00
71465;BME280;59274;49.874;9.154;2024-01-30T11:40:29;101733.25;;;7.45;100.00
71465;BME280;59274;49.874;9.154;2024-01-30T11:42:56;101732.00;;;7.51;100.00
71465;BME280;59274;49.874;9.154;2024-01-30T11:45:22;101722.16;;;7.64;100.00
71465;BME280;59274;49.874;9.154;2024-01-30T11:47:47;101730.41;;;7.67;100.00
71465;BME280;59274;49.874;9.154;2024-01-30T11:50:13;101730.75;;;7.83;100.00
71465;BME280;59274;49.874;9.154;2024-01-30T11:52:39;101731.41;;;7.80;100.00
71465;BME280;59274;49.874;9.154;2024-01-30T11:55:05;101733.50;;;7.92;100.00
71465;BME280;59274;49.874;9.154;2024-01-30T11:57:30;101729.66;;;7.93;100.00
71465;BME280;59274;49.874;9.154;2024-01-30T12:00:00;101722.97;;;7.90;100.00
71465;BME280;59274;49.874;9.154;2024-01-30T12:02:36;101715.84;;;7.94;100.00
71465;BME280;59274;49.874;9.154;2024-01-30T12:05:05;101715.34;;;7.92;100.00
71465;BME280;59274;49.874;9.154;2024-01-30T12:07:32;101706.28;;;8.05;100.00
71465;BME280;59274;49.874;9.154;2024-01-30T12:09:57;101707.25;;;8.09;100.00
71465;BME280;59274;49.874;9.154;2024-01-30T12:12:27;101700.69;;;8.19;100.00
71465;BME280;59274;49.874;9.154;2024-01-30T12:14:53;101698.19;;;8.31;100.00
71465;BME280;59274;49.874;9.154;2024-01-30T12:17:30;101697.50;;;8.25;100.00
71465;BME280;59274;49.874;9.154;2024-01-30T12:20:09;101703.56;;;8.05;100.00
71465;BME280;59274;49.874;9.154;2024-01-30T12:22:47;101697.22;;;8.10;100.00
71465;BME280;59274;49.874;9.154;2024-01-30T12:25:16;101686.53;;;8.13;100.00
71465;BME280;59274;49.874;9.154;2024-01-30T12:27:44;101693.38;;;8.11;100.00
71465;BME280;59274;49.874;9.154;2024-01-30T12:30:11;101687.66;;;8.21;100.00
71465;BME280;59274;49.874;9.154;2024-01-30T12:32:46;101682.25;;;8.38;100.00
71465;BME280;59274;49.874;9.154;2024-01-30T12:35:14;101683.34;;;8.29;100.00
71465;BME280;59274;49.874;9.154;2024-01-30T12:37:41;101681.59;;;8.41;100.00
71465;BME280;59274;49.874;9.154;2024-01-30T12:40:07;101673.09;;;8.60;100.00
71465;BME280;59274;49.874;9.154;2024-01-30T12:42:35;101668.94;;;8.71;100.00
71465;BME280;59274;49.874;9.154;2024-01-30T12:45:04;101659.47;;;8.86;100.00
71465;BME280;59274;49.874;9.154;2024-01-30T12:47:30;101664.69;;;8.99;100.00